If you wish to contribute or participate in the discussions about articles you are invited to join SKYbrary as a registered user

 Actions

Aomori Airport

From SKYbrary Wiki

RJSA
Airport
ICAO: RJSA – IATA: AOJ
Summary
Name Aomori Airport
Region Asia and Pacific
Territory Japan JP.gif
Location Aomori, Aomori Prefecture
Serving Aomori
Elevation 198.12 m650 ft198.12 m
Coordinates 40° 44' 17.8058", 140° 41' 20.7496"
Runways
Designator Length Width Surface ROPS
6/24 3001 m9,845.801 ft 61 m200.131 ft ASP yes/yes


METAR
Observation RJSA 170633Z 23007KT 4000 SHRA BR FEW005 SCT020 BKN030 23/22 Q1010 RMK 1ST005 3CU020 6CU030 A2982
Station Aomori Airport
Date/Time 17 July 2018 06:33:00
Wind direction 230°
Wind speed 07 kts
Lowest cloud amount few clouds
Temperature 23°C
Dew point 22°C
Humidity 94%
QNH 1010 hPa
Weather condition n/a

Regional airport located 11.2 km6.048 nm
11,200 m
36,745.407 ft
south southwest of Aomori, the capital city of Aomori Prefecture in northern Japan.

Climatology

Humid Continental climate (Köppen climate classification Dfa)

Maps

Terrain

Loading map...

Airport Layout

Loading map...


Accidents & Serious Incidents at or in vicinity of RJSA

None on SKYbrary